sensor_id;sensor_type;location;lat;lon;timestamp;pressure;altitude;pressure_sealevel;temperature;humidity
37368;BME280;23240;43.210;27.910;2023-05-29T00:01:05;100657.69;;;18.29;100.00
37368;BME280;23240;43.210;27.910;2023-05-29T00:03:34;100650.72;;;18.26;100.00
37368;BME280;23240;43.210;27.910;2023-05-29T00:06:01;100652.59;;;18.26;100.00
37368;BME280;23240;43.210;27.910;2023-05-29T00:08:27;100659.91;;;18.25;100.00
37368;BME280;23240;43.210;27.910;2023-05-29T00:10:52;100655.66;;;18.22;100.00
37368;BME280;23240;43.210;27.910;2023-05-29T00:13:18;100650.41;;;18.21;100.00
37368;BME280;23240;43.210;27.910;2023-05-29T00:15:43;100653.97;;;18.21;100.00
37368;BME280;23240;43.210;27.910;2023-05-29T00:18:08;100650.75;;;18.18;100.00
37368;BME280;23240;43.210;27.910;2023-05-29T00:20:34;100650.41;;;18.21;100.00
37368;BME280;23240;43.210;27.910;2023-05-29T00:22:59;100649.38;;;18.22;100.00
37368;BME280;23240;43.210;27.910;2023-05-29T00:25:26;100647.38;;;18.24;100.00
37368;BME280;23240;43.210;27.910;2023-05-29T00:27:52;100647.19;;;18.26;100.00
37368;BME280;23240;43.210;27.910;2023-05-29T00:30:17;100649.88;;;18.26;100.00
37368;BME280;23240;43.210;27.910;2023-05-29T00:32:42;100638.50;;;18.30;100.00
37368;BME280;23240;43.210;27.910;2023-05-29T00:35:08;100643.44;;;18.27;100.00
37368;BME280;23240;43.210;27.910;2023-05-29T00:37:34;100646.69;;;18.22;100.00
37368;BME280;23240;43.210;27.910;2023-05-29T00:39:59;100646.38;;;18.17;100.00
37368;BME280;23240;43.210;27.910;2023-05-29T00:42:25;100654.38;;;18.10;100.00
37368;BME280;23240;43.210;27.910;2023-05-29T00:44:50;100654.38;;;18.10;100.00
37368;BME280;23240;43.210;27.910;2023-05-29T00:47:16;100654.19;;;18.12;100.00
37368;BME280;23240;43.210;27.910;2023-05-29T00:49:41;100654.06;;;18.05;100.00
37368;BME280;23240;43.210;27.910;2023-05-29T00:52:07;100653.22;;;18.05;100.00
37368;BME280;23240;43.210;27.910;2023-05-29T00:54:34;100653.75;;;18.00;100.00
37368;BME280;23240;43.210;27.910;2023-05-29T00:57:00;100653.22;;;18.05;100.00
37368;BME280;23240;43.210;27.910;2023-05-29T00:59:27;100640.31;;;18.07;100.00
37368;BME280;23240;43.210;27.910;2023-05-29T01:01:54;100645.56;;;18.08;100.00
37368;BME280;23240;43.210;27.910;2023-05-29T01:04:20;100645.75;;;18.07;100.00
37368;BME280;23240;43.210;27.910;2023-05-29T01:06:48;100639.66;;;18.05;100.00
37368;BME280;23240;43.210;27.910;2023-05-29T01:09:14;100639.78;;;18.11;100.00
37368;BME280;23240;43.210;27.910;2023-05-29T01:11:45;100632.50;;;18.12;100.00
37368;BME280;23240;43.210;27.910;2023-05-29T01:14:16;100631.78;;;18.18;100.00
37368;BME280;23240;43.210;27.910;2023-05-29T01:16:50;100634.34;;;18.19;100.00
37368;BME280;23240;43.210;27.910;2023-05-29T01:24:11;100638.19;;;18.25;100.00
37368;BME280;23240;43.210;27.910;2023-05-29T01:26:47;100625.69;;;18.24;100.00
37368;BME280;23240;43.210;27.910;2023-05-29T01:29:14;100635.16;;;18.28;100.00
37368;BME280;23240;43.210;27.910;2023-05-29T01:31:41;100636.53;;;18.24;100.00
37368;BME280;23240;43.210;27.910;2023-05-29T01:34:07;100631.09;;;18.24;100.00
37368;BME280;23240;43.210;27.910;2023-05-29T01:36:32;100621.94;;;18.25;100.00
37368;BME280;23240;43.210;27.910;2023-05-29T01:38:58;100627.84;;;18.29;100.00
37368;BME280;23240;43.210;27.910;2023-05-29T01:41:24;100631.03;;;18.32;100.00
37368;BME280;23240;43.210;27.910;2023-05-29T01:43:52;100623.41;;;18.36;100.00
37368;BME280;23240;43.210;27.910;2023-05-29T01:46:18;100624.22;;;18.36;100.00
37368;BME280;23240;43.210;27.910;2023-05-29T01:48:44;100614.09;;;18.30;100.00
37368;BME280;23240;43.210;27.910;2023-05-29T01:51:10;100624.13;;;18.30;100.00
37368;BME280;23240;43.210;27.910;2023-05-29T01:53:36;100624.31;;;18.28;100.00
37368;BME280;23240;43.210;27.910;2023-05-29T01:56:02;100628.16;;;18.34;100.00
37368;BME280;23240;43.210;27.910;2023-05-29T01:58:28;100628.31;;;18.32;100.00
37368;BME280;23240;43.210;27.910;2023-05-29T02:00:54;100626.81;;;18.30;100.00
37368;BME280;23240;43.210;27.910;2023-05-29T02:03:20;100627.47;;;18.32;100.00
37368;BME280;23240;43.210;27.910;2023-05-29T02:05:46;100633.41;;;18.35;100.00
37368;BME280;23240;43.210;27.910;2023-05-29T02:08:11;100637.13;;;18.34;100.00
37368;BME280;23240;43.210;27.910;2023-05-29T02:10:37;100639.66;;;18.36;100.00
37368;BME280;23240;43.210;27.910;2023-05-29T02:13:02;100639.16;;;18.32;100.00
37368;BME280;23240;43.210;27.910;2023-05-29T02:15:27;100632.06;;;18.31;100.00
37368;BME280;23240;43.210;27.910;2023-05-29T02:17:53;100637.13;;;18.34;100.00
37368;BME280;23240;43.210;27.910;2023-05-29T02:20:18;100633.59;;;18.34;100.00
37368;BME280;23240;43.210;27.910;2023-05-29T02:22:43;100633.44;;;18.27;100.00
37368;BME280;23240;43.210;27.910;2023-05-29T02:25:09;100630.91;;;18.26;100.00
37368;BME280;23240;43.210;27.910;2023-05-29T02:27:34;100628.53;;;18.22;100.00
37368;BME280;23240;43.210;27.910;2023-05-29T02:29:59;100627.06;;;18.20;100.00
37368;BME280;23240;43.210;27.910;2023-05-29T02:32:25;100631.78;;;18.18;100.00
37368;BME280;23240;43.210;27.910;2023-05-29T02:34:52;100627.22;;;18.18;100.00
37368;BME280;23240;43.210;27.910;2023-05-29T02:37:17;100636.38;;;18.17;100.00
37368;BME280;23240;43.210;27.910;2023-05-29T02:39:43;100632.66;;;18.18;100.00
37368;BME280;23240;43.210;27.910;2023-05-29T02:42:08;100638.91;;;18.19;100.00
37368;BME280;23240;43.210;27.910;2023-05-29T02:44:33;100639.56;;;18.21;100.00
37368;BME280;23240;43.210;27.910;2023-05-29T02:46:59;100633.13;;;18.22;100.00
37368;BME280;23240;43.210;27.910;2023-05-29T02:49:24;100636.69;;;18.22;100.00
37368;BME280;23240;43.210;27.910;2023-05-29T02:51:50;100644.47;;;18.26;100.00
37368;BME280;23240;43.210;27.910;2023-05-29T02:54:15;100648.69;;;18.28;100.00
37368;BME280;23240;43.210;27.910;2023-05-29T02:56:40;100646.53;;;18.23;100.00
37368;BME280;23240;43.210;27.910;2023-05-29T02:59:06;100651.44;;;18.20;100.00
37368;BME280;23240;43.210;27.910;2023-05-29T03:01:31;100654.47;;;18.25;100.00
37368;BME280;23240;43.210;27.910;2023-05-29T03:03:57;100656.88;;;18.20;100.00
37368;BME280;23240;43.210;27.910;2023-05-29T03:06:23;100666.16;;;18.26;100.00
37368;BME280;23240;43.210;27.910;2023-05-29T03:08:48;100659.88;;;18.33;100.00
37368;BME280;23240;43.210;27.910;2023-05-29T03:11:14;100662.19;;;18.36;100.00
37368;BME280;23240;43.210;27.910;2023-05-29T03:13:40;100672.69;;;18.39;100.00
37368;BME280;23240;43.210;27.910;2023-05-29T03:16:06;100656.75;;;18.44;100.00
37368;BME280;23240;43.210;27.910;2023-05-29T03:18:33;100670.63;;;18.41;100.00
37368;BME280;23240;43.210;27.910;2023-05-29T03:20:59;100667.41;;;18.46;100.00
37368;BME280;23240;43.210;27.910;2023-05-29T03:23:24;100668.91;;;18.48;100.00
37368;BME280;23240;43.210;27.910;2023-05-29T03:25:50;100659.22;;;18.54;100.00
37368;BME280;23240;43.210;27.910;2023-05-29T03:28:15;100660.91;;;18.55;100.00
37368;BME280;23240;43.210;27.910;2023-05-29T03:30:40;100656.69;;;18.53;100.00
37368;BME280;23240;43.210;27.910;2023-05-29T03:33:06;100661.13;;;18.45;100.00
37368;BME280;23240;43.210;27.910;2023-05-29T03:35:31;100657.75;;;18.43;100.00
37368;BME280;23240;43.210;27.910;2023-05-29T03:37:56;100664.53;;;18.47;100.00
37368;BME280;23240;43.210;27.910;2023-05-29T03:40:22;100659.94;;;18.48;100.00
37368;BME280;23240;43.210;27.910;2023-05-29T03:42:47;100660.06;;;18.55;100.00
37368;BME280;23240;43.210;27.910;2023-05-29T03:45:12;100666.63;;;18.60;100.00
37368;BME280;23240;43.210;27.910;2023-05-29T03:47:38;100670.19;;;18.61;100.00
37368;BME280;23240;43.210;27.910;2023-05-29T03:50:03;100662.88;;;18.69;100.00
37368;BME280;23240;43.210;27.910;2023-05-29T03:52:28;100656.72;;;18.75;100.00
37368;BME280;23240;43.210;27.910;2023-05-29T03:54:54;100666.56;;;18.77;100.00
37368;BME280;23240;43.210;27.910;2023-05-29T03:57:19;100671.81;;;18.78;100.00
37368;BME280;23240;43.210;27.910;2023-05-29T03:59:45;100670.13;;;18.77;100.00
37368;BME280;23240;43.210;27.910;2023-05-29T04:02:10;100674.72;;;18.77;100.00
37368;BME280;23240;43.210;27.910;2023-05-29T04:04:35;100683.31;;;18.80;100.00
37368;BME280;23240;43.210;27.910;2023-05-29T04:07:01;100681.53;;;18.72;100.00
37368;BME280;23240;43.210;27.910;2023-05-29T04:09:26;100674.22;;;18.65;100.00
37368;BME280;23240;43.210;27.910;2023-05-29T04:11:51;100677.78;;;18.65;100.00
37368;BME280;23240;43.210;27.910;2023-05-29T04:14:17;100681.22;;;18.59;100.00
37368;BME280;23240;43.210;27.910;2023-05-29T04:16:42;100677.47;;;18.60;100.00
37368;BME280;23240;43.210;27.910;2023-05-29T04:19:08;100671.53;;;18.65;100.00
37368;BME280;23240;43.210;27.910;2023-05-29T04:21:33;100676.25;;;18.71;100.00
37368;BME280;23240;43.210;27.910;2023-05-29T04:23:59;100677.25;;;18.78;100.00
37368;BME280;23240;43.210;27.910;2023-05-29T04:26:25;100679.41;;;18.83;100.00
37368;BME280;23240;43.210;27.910;2023-05-29T04:28:52;100686.72;;;18.82;100.00
37368;BME280;23240;43.210;27.910;2023-05-29T04:31:22;100693.47;;;18.86;100.00
37368;BME280;23240;43.210;27.910;2023-05-29T04:33:47;100685.34;;;18.86;100.00
37368;BME280;23240;43.210;27.910;2023-05-29T04:36:14;100679.91;;;18.86;100.00
37368;BME280;23240;43.210;27.910;2023-05-29T04:38:39;100680.38;;;18.90;100.00
37368;BME280;23240;43.210;27.910;2023-05-29T04:41:04;100676.09;;;18.95;100.00
37368;BME280;23240;43.210;27.910;2023-05-29T04:43:30;100687.25;;;19.00;100.00
37368;BME280;23240;43.210;27.910;2023-05-29T04:45:55;100671.94;;;19.08;100.00
37368;BME280;23240;43.210;27.910;2023-05-29T04:48:21;100688.22;;;19.08;100.00
37368;BME280;23240;43.210;27.910;2023-05-29T04:50:46;100686.38;;;19.23;100.00
37368;BME280;23240;43.210;27.910;2023-05-29T04:53:13;100681.94;;;19.30;100.00
37368;BME280;23240;43.210;27.910;2023-05-29T04:55:38;100697.38;;;19.30;100.00
37368;BME280;23240;43.210;27.910;2023-05-29T04:58:04;100705.09;;;19.18;100.00
37368;BME280;23240;43.210;27.910;2023-05-29T05:00:29;100700.88;;;19.15;100.00
37368;BME280;23240;43.210;27.910;2023-05-29T05:02:54;100701.00;;;19.22;100.00
37368;BME280;23240;43.210;27.910;2023-05-29T05:05:20;100705.59;;;19.21;100.00
37368;BME280;23240;43.210;27.910;2023-05-29T05:07:46;100697.25;;;19.23;100.00
37368;BME280;23240;43.210;27.910;2023-05-29T05:10:11;100710.81;;;19.23;100.00
37368;BME280;23240;43.210;27.910;2023-05-29T05:12:36;100704.91;;;19.19;100.00
37368;BME280;23240;43.210;27.910;2023-05-29T05:15:02;100710.53;;;19.18;100.00
37368;BME280;23240;43.210;27.910;2023-05-29T05:17:27;100706.78;;;19.19;100.00
37368;BME280;23240;43.210;27.910;2023-05-29T05:19:53;100699.38;;;19.13;100.00
37368;BME280;23240;43.210;27.910;2023-05-29T05:22:18;100710.19;;;19.21;100.00
37368;BME280;23240;43.210;27.910;2023-05-29T05:24:43;100707.75;;;19.26;100.00
37368;BME280;23240;43.210;27.910;2023-05-29T05:27:09;100704.84;;;19.27;100.00
37368;BME280;23240;43.210;27.910;2023-05-29T05:29:34;100709.78;;;19.24;100.00
37368;BME280;23240;43.210;27.910;2023-05-29T05:31:59;100706.06;;;19.25;100.00
37368;BME280;23240;43.210;27.910;2023-05-29T05:34:25;100714.03;;;19.26;100.00
37368;BME280;23240;43.210;27.910;2023-05-29T05:36:50;100720.78;;;19.31;100.00
37368;BME280;23240;43.210;27.910;2023-05-29T05:39:16;100721.81;;;19.30;100.00
37368;BME280;23240;43.210;27.910;2023-05-29T05:41:41;100729.84;;;19.23;100.00
37368;BME280;23240;43.210;27.910;2023-05-29T05:44:06;100738.38;;;19.20;100.00
37368;BME280;23240;43.210;27.910;2023-05-29T05:46:32;100730.91;;;19.14;100.00
37368;BME280;23240;43.210;27.910;2023-05-29T05:48:57;100735.25;;;19.23;100.00
37368;BME280;23240;43.210;27.910;2023-05-29T05:51:23;100737.81;;;19.24;100.00
37368;BME280;23240;43.210;27.910;2023-05-29T05:53:48;100737.56;;;19.34;100.00
37368;BME280;23240;43.210;27.910;2023-05-29T05:56:14;100737.66;;;19.41;100.00
37368;BME280;23240;43.210;27.910;2023-05-29T05:58:39;100737.47;;;19.42;100.00
37368;BME280;23240;43.210;27.910;2023-05-29T06:01:04;100727.84;;;19.40;100.00
37368;BME280;23240;43.210;27.910;2023-05-29T06:03:33;100727.84;;;19.40;100.00
37368;BME280;23240;43.210;27.910;2023-05-29T06:05:59;100727.16;;;19.38;100.00
37368;BME280;23240;43.210;27.910;2023-05-29T06:08:34;100722.50;;;19.46;100.00
37368;BME280;23240;43.210;27.910;2023-05-29T06:11:17;100715.75;;;19.42;100.00
37368;BME280;23240;43.210;27.910;2023-05-29T06:13:46;100713.28;;;19.33;100.00
37368;BME280;23240;43.210;27.910;2023-05-29T06:16:11;100720.25;;;19.35;100.00
37368;BME280;23240;43.210;27.910;2023-05-29T06:18:37;100713.00;;;19.27;100.00
37368;BME280;23240;43.210;27.910;2023-05-29T06:21:02;100712.09;;;18.89;100.00
37368;BME280;23240;43.210;27.910;2023-05-29T06:23:27;100725.78;;;18.65;100.00
37368;BME280;23240;43.210;27.910;2023-05-29T06:25:53;100737.97;;;18.38;100.00
37368;BME280;23240;43.210;27.910;2023-05-29T06:28:18;100746.47;;;18.27;100.00
37368;BME280;23240;43.210;27.910;2023-05-29T06:30:43;100736.00;;;18.15;100.00
37368;BME280;23240;43.210;27.910;2023-05-29T06:33:09;100744.00;;;18.09;100.00
37368;BME280;23240;43.210;27.910;2023-05-29T06:35:34;100743.00;;;18.02;100.00
37368;BME280;23240;43.210;27.910;2023-05-29T06:37:59;100748.94;;;17.97;100.00
37368;BME280;23240;43.210;27.910;2023-05-29T06:40:25;100750.47;;;17.91;100.00
37368;BME280;23240;43.210;27.910;2023-05-29T06:42:50;100749.69;;;17.75;100.00
37368;BME280;23240;43.210;27.910;2023-05-29T06:45:16;100753.22;;;17.75;100.00
37368;BME280;23240;43.210;27.910;2023-05-29T06:47:42;100747.44;;;17.70;100.00
37368;BME280;23240;43.210;27.910;2023-05-29T06:50:08;100759.63;;;17.74;100.00
37368;BME280;23240;43.210;27.910;2023-05-29T06:52:33;100753.53;;;17.64;100.00
37368;BME280;23240;43.210;27.910;2023-05-29T06:54:58;100764.69;;;17.69;100.00
37368;BME280;23240;43.210;27.910;2023-05-29T06:57:24;100753.53;;;17.72;100.00
37368;BME280;23240;43.210;27.910;2023-05-29T06:59:49;100765.38;;;17.71;100.00
37368;BME280;23240;43.210;27.910;2023-05-29T07:02:15;100781.66;;;17.71;100.00
37368;BME280;23240;43.210;27.910;2023-05-29T07:04:40;100784.03;;;17.74;100.00
37368;BME280;23240;43.210;27.910;2023-05-29T07:07:06;100794.53;;;17.85;100.00
37368;BME280;23240;43.210;27.910;2023-05-29T07:09:31;100794.53;;;17.85;100.00
37368;BME280;23240;43.210;27.910;2023-05-29T07:11:56;100805.84;;;17.89;100.00
37368;BME280;23240;43.210;27.910;2023-05-29T07:14:22;100812.81;;;17.83;100.00
37368;BME280;23240;43.210;27.910;2023-05-29T07:16:47;100835.84;;;17.79;100.00
37368;BME280;23240;43.210;27.910;2023-05-29T07:19:12;100833.63;;;17.66;100.00
37368;BME280;23240;43.210;27.910;2023-05-29T07:21:39;100831.56;;;17.52;100.00
37368;BME280;23240;43.210;27.910;2023-05-29T07:24:04;100830.56;;;17.61;100.00
37368;BME280;23240;43.210;27.910;2023-05-29T07:26:30;100842.09;;;17.71;100.00
37368;BME280;23240;43.210;27.910;2023-05-29T07:28:56;100843.09;;;17.70;100.00
37368;BME280;23240;43.210;27.910;2023-05-29T07:31:21;100841.78;;;17.75;100.00
37368;BME280;23240;43.210;27.910;2023-05-29T07:33:46;100839.22;;;17.73;100.00
37368;BME280;23240;43.210;27.910;2023-05-29T07:36:12;100836.19;;;17.76;100.00
37368;BME280;23240;43.210;27.910;2023-05-29T07:38:37;100843.63;;;17.82;100.00
37368;BME280;23240;43.210;27.910;2023-05-29T07:41:02;100853.44;;;17.91;100.00
37368;BME280;23240;43.210;27.910;2023-05-29T07:43:28;100856.66;;;17.87;100.00
37368;BME280;23240;43.210;27.910;2023-05-29T07:45:53;100852.78;;;17.73;100.00
37368;BME280;23240;43.210;27.910;2023-05-29T07:48:18;100856.66;;;17.70;100.00
37368;BME280;23240;43.210;27.910;2023-05-29T07:50:44;100857.50;;;17.71;100.00
37368;BME280;23240;43.210;27.910;2023-05-29T07:53:09;100859.03;;;17.82;100.00
37368;BME280;23240;43.210;27.910;2023-05-29T07:55:35;100858.19;;;17.81;100.00
37368;BME280;23240;43.210;27.910;2023-05-29T07:58:00;100856.66;;;17.70;100.00
37368;BME280;23240;43.210;27.910;2023-05-29T08:00:27;100861.56;;;17.67;100.00
37368;BME280;23240;43.210;27.910;2023-05-29T08:02:53;100857.47;;;17.63;100.00
37368;BME280;23240;43.210;27.910;2023-05-29T08:05:18;100856.31;;;17.65;100.00
37368;BME280;23240;43.210;27.910;2023-05-29T08:07:44;100860.88;;;17.57;100.00
37368;BME280;23240;43.210;27.910;2023-05-29T08:10:09;100871.19;;;17.69;100.00
37368;BME280;23240;43.210;27.910;2023-05-29T08:12:35;100873.44;;;17.82;100.00
37368;BME280;23240;43.210;27.910;2023-05-29T08:15:01;100862.28;;;17.85;100.00
37368;BME280;23240;43.210;27.910;2023-05-29T08:17:26;100865.28;;;17.74;100.00
37368;BME280;23240;43.210;27.910;2023-05-29T08:19:53;100874.13;;;17.76;100.00
37368;BME280;23240;43.210;27.910;2023-05-29T08:22:18;100872.44;;;17.91;100.00
37368;BME280;23240;43.210;27.910;2023-05-29T08:24:43;100861.75;;;17.98;100.00
37368;BME280;23240;43.210;27.910;2023-05-29T08:27:09;100858.19;;;18.06;100.00
37368;BME280;23240;43.210;27.910;2023-05-29T08:29:34;100867.16;;;18.14;100.00
37368;BME280;23240;43.210;27.910;2023-05-29T08:32:01;100864.78;;;18.19;100.00
37368;BME280;23240;43.210;27.910;2023-05-29T08:34:26;100859.50;;;18.18;100.00
37368;BME280;23240;43.210;27.910;2023-05-29T08:36:51;100863.59;;;18.14;100.00
37368;BME280;23240;43.210;27.910;2023-05-29T08:39:20;100870.72;;;18.15;100.00
37368;BME280;23240;43.210;27.910;2023-05-29T08:44:13;100866.78;;;18.26;100.00
37368;BME280;23240;43.210;27.910;2023-05-29T08:46:39;100862.53;;;18.39;100.00
37368;BME280;23240;43.210;27.910;2023-05-29T08:49:05;100850.97;;;18.45;100.00
37368;BME280;23240;43.210;27.910;2023-05-29T08:51:33;100849.44;;;18.51;100.00
37368;BME280;23240;43.210;27.910;2023-05-29T08:54:01;100843.16;;;18.50;100.00
37368;BME280;23240;43.210;27.910;2023-05-29T08:56:27;100837.94;;;18.49;100.00
37368;BME280;23240;43.210;27.910;2023-05-29T08:58:52;100844.53;;;18.55;100.00
37368;BME280;23240;43.210;27.910;2023-05-29T09:01:18;100837.41;;;18.54;100.00
37368;BME280;23240;43.210;27.910;2023-05-29T09:03:45;100831.66;;;18.57;100.00
37368;BME280;23240;43.210;27.910;2023-05-29T09:06:11;100823.31;;;18.58;100.00
37368;BME280;23240;43.210;27.910;2023-05-29T09:08:37;100822.78;;;18.71;100.00
37368;BME280;23240;43.210;27.910;2023-05-29T09:11:03;100818.03;;;18.73;100.00
37368;BME280;23240;43.210;27.910;2023-05-29T09:13:29;100817.63;;;18.84;100.00
37368;BME280;23240;43.210;27.910;2023-05-29T09:15:58;100812.47;;;18.97;100.00
37368;BME280;23240;43.210;27.910;2023-05-29T09:18:25;100810.34;;;19.16;100.00
37368;BME280;23240;43.210;27.910;2023-05-29T09:20:53;100807.63;;;19.16;100.00
37368;BME280;23240;43.210;27.910;2023-05-29T09:23:18;100800.91;;;19.04;100.00
37368;BME280;23240;43.210;27.910;2023-05-29T09:25:43;100809.13;;;18.95;100.00
37368;BME280;23240;43.210;27.910;2023-05-29T09:28:09;100805.06;;;18.91;100.00
37368;BME280;23240;43.210;27.910;2023-05-29T09:30:35;100802.28;;;18.99;100.00
37368;BME280;23240;43.210;27.910;2023-05-29T09:33:01;100799.28;;;19.17;100.00
37368;BME280;23240;43.210;27.910;2023-05-29T09:35:35;100799.56;;;19.54;100.00
37368;BME280;23240;43.210;27.910;2023-05-29T09:38:01;100790.38;;;19.77;100.00
37368;BME280;23240;43.210;27.910;2023-05-29T09:40:29;100782.88;;;19.94;100.00
37368;BME280;23240;43.210;27.910;2023-05-29T09:42:54;100785.81;;;20.22;100.00
37368;BME280;23240;43.210;27.910;2023-05-29T09:45:20;100765.47;;;20.33;100.00
37368;BME280;23240;43.210;27.910;2023-05-29T09:47:46;100769.59;;;20.29;100.00
37368;BME280;23240;43.210;27.910;2023-05-29T09:50:18;100768.53;;;20.45;100.00
37368;BME280;23240;43.210;27.910;2023-05-29T09:52:47;100769.69;;;20.65;100.00
37368;BME280;23240;43.210;27.910;2023-05-29T09:55:15;100768.38;;;20.61;100.00
37368;BME280;23240;43.210;27.910;2023-05-29T09:57:44;100759.53;;;20.44;100.00
37368;BME280;23240;43.210;27.910;2023-05-29T10:00:11;100764.66;;;20.47;100.00
37368;BME280;23240;43.210;27.910;2023-05-29T10:02:38;100760.22;;;20.61;100.00
37368;BME280;23240;43.210;27.910;2023-05-29T10:05:05;100764.03;;;20.82;100.00
37368;BME280;23240;43.210;27.910;2023-05-29T10:07:31;100751.19;;;20.75;100.00
37368;BME280;23240;43.210;27.910;2023-05-29T10:10:01;100753.75;;;20.62;100.00
37368;BME280;23240;43.210;27.910;2023-05-29T10:12:27;100752.53;;;20.65;100.00
37368;BME280;23240;43.210;27.910;2023-05-29T10:14:54;100745.22;;;20.65;100.00
37368;BME280;23240;43.210;27.910;2023-05-29T10:17:22;100743.69;;;20.63;100.00
37368;BME280;23240;43.210;27.910;2023-05-29T10:19:48;100746.69;;;20.68;100.00
37368;BME280;23240;43.210;27.910;2023-05-29T10:22:16;100744.63;;;20.70;100.00
37368;BME280;23240;43.210;27.910;2023-05-29T10:24:44;100750.63;;;20.80;100.00
37368;BME280;23240;43.210;27.910;2023-05-29T10:27:11;100745.50;;;20.92;100.00
37368;BME280;23240;43.210;27.910;2023-05-29T10:29:38;100744.53;;;20.99;100.00
37368;BME280;23240;43.210;27.910;2023-05-29T10:32:27;100744.28;;;21.16;100.00
37368;BME280;23240;43.210;27.910;2023-05-29T10:37:42;100740.41;;;21.46;100.00
37368;BME280;23240;43.210;27.910;2023-05-29T10:40:10;100735.91;;;21.60;100.00
37368;BME280;23240;43.210;27.910;2023-05-29T10:42:46;100738.19;;;21.85;100.00
37368;BME280;23240;43.210;27.910;2023-05-29T10:47:53;100739.25;;;22.18;100.00
37368;BME280;23240;43.210;27.910;2023-05-29T10:50:34;100734.03;;;22.17;100.00
37368;BME280;23240;43.210;27.910;2023-05-29T10:53:00;100744.78;;;21.69;100.00
37368;BME280;23240;43.210;27.910;2023-05-29T10:55:33;100737.50;;;21.48;100.00
37368;BME280;23240;43.210;27.910;2023-05-29T10:57:58;100740.66;;;21.30;100.00
37368;BME280;23240;43.210;27.910;2023-05-29T11:00:24;100748.97;;;21.43;100.00
37368;BME280;23240;43.210;27.910;2023-05-29T11:02:51;100741.06;;;21.48;100.00
37368;BME280;23240;43.210;27.910;2023-05-29T11:05:20;100728.91;;;21.29;100.00
37368;BME280;23240;43.210;27.910;2023-05-29T11:07:53;100737.66;;;21.25;100.00
37368;BME280;23240;43.210;27.910;2023-05-29T11:13:04;100728.94;;;20.93;100.00
37368;BME280;23240;43.210;27.910;2023-05-29T11:15:32;100727.22;;;21.07;100.00
37368;BME280;23240;43.210;27.910;2023-05-29T11:18:05;100730.69;;;21.37;100.00
37368;BME280;23240;43.210;27.910;2023-05-29T11:20:37;100729.63;;;21.60;100.00
37368;BME280;23240;43.210;27.910;2023-05-29T11:23:07;100721.28;;;21.68;100.00
37368;BME280;23240;43.210;27.910;2023-05-29T11:25:34;100728.78;;;21.59;100.00
37368;BME280;23240;43.210;27.910;2023-05-29T11:27:59;100728.56;;;21.61;100.00
37368;BME280;23240;43.210;27.910;2023-05-29T11:30:25;100727.13;;;21.65;100.00
37368;BME280;23240;43.210;27.910;2023-05-29T11:32:52;100732.59;;;21.65;100.00
37368;BME280;23240;43.210;27.910;2023-05-29T11:35:19;100733.38;;;21.87;100.00
37368;BME280;23240;43.210;27.910;2023-05-29T11:37:47;100735.28;;;21.86;100.00
37368;BME280;23240;43.210;27.910;2023-05-29T11:40:13;100735.28;;;21.86;100.00
37368;BME280;23240;43.210;27.910;2023-05-29T11:42:42;100741.50;;;21.52;100.00
37368;BME280;23240;43.210;27.910;2023-05-29T11:45:16;100739.97;;;21.43;100.00
37368;BME280;23240;43.210;27.910;2023-05-29T11:50:19;100736.81;;;21.24;100.00
37368;BME280;23240;43.210;27.910;2023-05-29T11:52:45;100740.84;;;21.07;100.00
37368;BME280;23240;43.210;27.910;2023-05-29T11:55:11;100738.00;;;21.15;100.00
37368;BME280;23240;43.210;27.910;2023-05-29T11:57:36;100736.63;;;21.04;100.00
37368;BME280;23240;43.210;27.910;2023-05-29T12:00:02;100732.59;;;21.00;100.00
37368;BME280;23240;43.210;27.910;2023-05-29T12:02:32;100738.31;;;21.05;100.00
37368;BME280;23240;43.210;27.910;2023-05-29T12:05:04;100729.63;;;21.17;100.00
37368;BME280;23240;43.210;27.910;2023-05-29T12:07:29;100729.50;;;21.03;100.00
37368;BME280;23240;43.210;27.910;2023-05-29T12:09:55;100726.06;;;20.95;100.00
37368;BME280;23240;43.210;27.910;2023-05-29T12:12:23;100722.91;;;20.76;100.00
37368;BME280;23240;43.210;27.910;2023-05-29T12:14:51;100718.16;;;20.64;100.00
37368;BME280;23240;43.210;27.910;2023-05-29T12:17:17;100714.28;;;20.73;100.00
37368;BME280;23240;43.210;27.910;2023-05-29T12:19:43;100714.81;;;20.62;100.00
37368;BME280;23240;43.210;27.910;2023-05-29T12:22:09;100715.16;;;20.59;100.00
37368;BME280;23240;43.210;27.910;2023-05-29T12:24:34;100727.72;;;20.60;100.00
37368;BME280;23240;43.210;27.910;2023-05-29T12:27:03;100712.44;;;20.59;100.00
37368;BME280;23240;43.210;27.910;2023-05-29T12:29:32;100718.63;;;20.67;100.00
37368;BME280;23240;43.210;27.910;2023-05-29T12:31:58;100712.41;;;20.73;100.00
37368;BME280;23240;43.210;27.910;2023-05-29T12:34:24;100719.34;;;20.76;100.00
37368;BME280;23240;43.210;27.910;2023-05-29T12:36:49;100712.34;;;20.67;100.00
37368;BME280;23240;43.210;27.910;2023-05-29T12:39:15;100704.47;;;20.57;100.00
37368;BME280;23240;43.210;27.910;2023-05-29T12:41:40;100708.97;;;20.35;100.00
37368;BME280;23240;43.210;27.910;2023-05-29T12:44:06;100709.19;;;20.19;100.00